Latest Weather Observations for Walungurru (Kintore)

IDD60801

Issued at 8:01 pm CST Sunday 16 December 2018 (issued every 10 minutes, with the page automatically refreshed every 10 minutes)

About weather observations | Map of weather stations | Latest weather observations for NT | Other Formats
Station Details ID: 015664 Name: WALUNGURRU AIRPORT Lat: -23.27 Lon: 129.38 Height: 454.3 m
Data from the previous 72 hours. | See also: Recent months at Walungurru (Kintore)
Date/Time
CST
Temp
°C
App
Temp
°C
Dew
Point
°C
Rel
Hum
%
Delta-T
°C
Wind Press
QNH
hPa
Press
MSL
hPa
Rain since
9am
mm
Dir  Spd
km/h
Gust
km/h
Spd
kts
Gust
kts
16/08:00pm 38.6 34.2 0.1 9 19.9 WNW 13 15 7 8 1003.8 - 0.0
16/07:30pm 39.9 34.6 -0.5 8 20.8 WNW 17 20 9 11 1003.5 - 0.0
16/07:00pm 41.4 36.4 -1.3 7 21.9 WNW 15 22 8 12 1003.2 - 0.0
16/06:30pm 42.3 38.9 -0.6 7 22.4 WNW 7 19 4 10 1003.0 - 0.0
16/06:00pm 42.4 35.9 -2.7 6 22.9 NW 22 30 12 16 1002.9 999.6 0.0
16/05:30pm 42.4 38.9 -2.7 6 22.8 SW 6 15 3 8 1002.9 - 0.0
16/05:00pm 42.6 37.0 -2.5 6 22.9 NW 17 28 9 15 1002.9 - 0.0
16/04:30pm 42.7 38.7 -2.4 6 22.9 SSW 9 17 5 9 1003.0 - 0.0
16/04:00pm 43.2 38.5 -2.1 6 23.2 W 13 24 7 13 1003.3 - 0.0
16/03:30pm 42.8 36.9 -2.4 6 23.0 N 19 24 10 13 1003.7 - 0.0
16/03:00pm 41.4 37.9 -1.3 7 22.0 W 7 11 4 6 1004.2 1000.9 0.0
16/02:30pm 42.3 38.1 -0.6 7 22.4 SW 11 24 6 13 1004.4 - 0.0
16/02:00pm 41.8 37.7 -3.1 6 22.5 WNW 9 19 5 10 1005.1 - 0.0
16/01:30pm 41.5 37.4 -3.3 6 22.3 NNW 9 26 5 14 1005.4 - 0.0
16/01:00pm 40.5 35.9 -4.0 6 21.8 NNE 11 20 6 11 1005.9 - 0.0
16/12:30pm 40.4 35.0 -4.1 6 21.8 WNW 15 26 8 14 1006.4 - 0.0
16/12:00pm 39.4 33.6 -4.8 6 21.3 NE 17 24 9 13 1006.7 1003.5 0.0
16/11:30am 38.9 32.5 -5.1 6 21.0 NE 20 30 11 16 1007.0 - 0.0
16/11:00am 37.8 31.1 -3.9 7 20.1 NNE 22 32 12 17 1007.4 - 0.0
16/10:30am 36.9 29.4 -4.5 7 19.7 NE 26 35 14 19 1007.6 - 0.0
16/10:00am 36.2 28.1 -3.3 8 19.0 NE 30 39 16 21 1007.7 - 0.0
16/09:30am 35.0 26.4 -4.1 8 18.4 ENE 32 39 17 21 1007.6 - 0.0
16/09:00am 33.6 24.9 -3.6 9 17.6 ENE 33 41 18 22 1007.5 1004.2 0.0
16/08:30am 32.2 23.5 -3.2 10 16.6 ENE 33 43 18 23 1007.7 - 0.0
16/08:00am 30.5 21.7 -4.5 10 15.9 ENE 33 43 18 23 1007.7 - 0.0
16/07:30am 28.7 20.4 -4.6 11 14.9 ENE 30 41 16 22 1007.7 - 0.0
16/07:00am 27.9 19.3 -4.1 12 14.3 ENE 32 39 17 21 1007.5 - 0.0
16/06:30am 27.3 20.1 -5.7 11 14.3 ENE 24 33 13 18 1007.3 - 0.0
16/06:00am 27.6 20.0 -5.5 11 14.4 ENE 26 35 14 19 1007.0 1003.8 0.0
16/05:30am 28.3 19.9 -6.2 10 14.9 E 30 37 16 20 1006.3 - 0.0
16/05:00am 29.2 21.6 -5.5 10 15.3 E 26 35 14 19 1006.1 - 0.0
16/04:30am 29.1 21.1 -5.6 10 15.3 E 28 39 15 21 1006.1 - 0.0
16/04:00am 29.7 23.1 -6.5 9 15.7 E 20 24 11 13 1006.1 - 0.0
16/03:30am 29.9 23.1 -5.0 10 15.6 E 22 28 12 15 1006.1 - 0.0
16/03:00am 30.2 24.3 -6.1 9 16.0 E 17 20 9 11 1006.0 1002.7 0.0
16/02:30am 30.9 24.4 -5.6 9 16.3 E 20 26 11 14 1006.0 - 0.0
16/02:00am 30.2 24.6 -6.1 9 16.0 E 15 24 8 13 1006.1 - 0.0
16/01:30am 30.6 24.7 -5.8 9 16.1 E 17 20 9 11 1006.1 - 0.0
16/01:00am 30.1 25.4 -4.8 10 15.7 ESE 11 17 6 9 1006.1 - 0.0
16/12:30am 28.1 24.2 -5.1 11 14.6 ESE 7 11 4 6 1006.3 - 0.0
16/12:00am 28.7 23.3 -4.6 11 14.9 SSE 15 17 8 9 1006.5 1003.3 0.0
 
Date/Time
CST
Temp
°C
App
Temp
°C
Dew
Point
°C
Rel
Hum
%
Delta-T
°C
Wind Press
QNH
hPa
Press
MSL
hPa
Rain since
9am
mm
Dir  Spd
km/h
Gust
km/h
Spd
kts
Gust
kts
15/11:30pm 29.4 23.5 -5.4 10 15.4 SSE 17 20 9 11 1006.5 - 0.0
15/11:00pm 29.0 23.8 -5.7 10 15.2 SSE 13 17 7 9 1006.5 - 0.0
15/10:30pm 29.4 24.3 -5.4 10 15.4 SSE 13 15 7 8 1006.6 - 0.0
15/10:00pm 30.5 25.1 -4.5 10 15.9 SSE 15 17 8 9 1006.2 - 0.0
15/09:30pm 30.2 25.0 -6.1 9 16.0 SSE 13 13 7 7 1005.8 - 0.0
15/09:00pm 30.9 26.1 -5.6 9 16.3 SSE 11 13 6 7 1005.5 1002.2 0.0
15/08:30pm 33.3 28.4 -7.1 7 17.9 S 11 15 6 8 1005.3 - 0.0
15/08:00pm 34.3 29.1 -6.4 7 18.4 S 13 15 7 8 1005.0 - 0.0
15/07:30pm 35.7 30.4 -7.4 6 19.4 S 13 17 7 9 1004.7 - 0.0
15/07:00pm 36.9 30.5 -6.5 6 20.0 S 19 24 10 13 1004.5 - 0.0
15/06:30pm 37.6 31.4 -8.4 5 20.7 S 17 28 9 15 1004.5 - 0.0
15/06:00pm 38.3 32.9 -7.9 5 21.1 SW 13 26 7 14 1004.3 1001.0 0.0
15/05:30pm 38.3 33.3 -7.9 5 21.0 SSE 11 26 6 14 1004.1 - 0.0
15/05:00pm 38.4 32.7 -7.8 5 21.1 SSW 15 28 8 15 1004.0 - 0.0
15/04:30pm 38.5 32.8 -7.8 5 21.1 S 15 24 8 13 1003.9 - 0.0
15/04:00pm 38.1 31.6 -8.1 5 20.9 SSE 19 26 10 14 1004.1 - 0.0
15/03:30pm 37.8 32.6 -5.9 6 20.4 SSW 13 28 7 15 1004.6 - 0.0
15/03:00pm 37.1 32.1 -8.7 5 20.5 S 11 20 6 11 1004.7 1001.5 0.0
15/02:30pm 36.9 31.9 -4.5 7 19.7 WNW 13 26 7 14 1005.0 - 0.0
15/02:00pm 37.4 32.2 -6.2 6 20.2 S 13 20 7 11 1005.5 - 0.0
15/01:30pm 36.3 31.2 -5.0 7 19.4 NE 13 28 7 15 1006.0 - 0.0
15/01:00pm 36.0 31.5 -3.4 8 18.9 WNW 11 20 6 11 1006.6 - 0.0
15/12:30pm 35.2 31.6 -2.4 9 18.3 NE 7 17 4 9 1007.0 - 0.0
15/12:00pm 35.0 31.3 -2.6 9 18.2 SSW 7 15 4 8 1007.6 1004.3 0.0
15/11:30am 33.5 29.5 -2.3 10 17.2 N 9 17 5 9 1008.1 - 0.0
15/11:00am 33.1 28.3 -2.6 10 17.0 NE 13 22 7 12 1008.5 - 0.0
15/10:30am 32.0 26.9 -2.1 11 16.3 ENE 15 22 8 12 1008.9 - 0.0
15/10:00am 30.3 24.4 -2.2 12 15.3 ENE 19 28 10 15 1009.6 - 0.0
15/09:30am 29.2 23.3 -2.0 13 14.6 E 19 30 10 16 1009.8 - 0.0
15/09:00am 28.1 21.9 -2.9 13 14.2 E 20 30 11 16 1010.0 1006.7 0.0
15/08:30am 26.7 20.1 -3.0 14 13.4 E 22 30 12 16 1010.0 - 0.0
15/08:00am 25.8 19.5 -3.7 14 13.1 E 20 32 11 17 1009.9 - 0.0
15/07:30am 24.0 18.0 -3.3 16 12.0 SE 19 26 10 14 1009.9 - 0.0
15/07:00am 22.5 15.9 -3.7 17 11.3 SE 22 32 12 17 1009.5 - 0.0
15/06:30am 21.5 14.5 -3.8 18 10.8 SE 24 33 13 18 1008.9 - 0.0
15/06:00am 21.0 14.8 -3.5 19 10.5 SSE 20 32 11 17 1008.6 1005.4 0.0
15/05:30am 21.3 15.3 -3.2 19 10.5 SSE 19 28 10 15 1008.2 - 0.0
15/05:00am 21.9 15.3 -3.5 18 10.9 SE 22 33 12 18 1007.6 - 0.0
15/04:30am 21.9 15.9 -2.7 19 10.7 SSE 19 26 10 14 1007.5 - 0.0
15/04:00am 22.1 15.6 -2.6 19 10.8 SSE 22 30 12 16 1007.3 - 0.0
15/03:30am 22.6 15.8 -2.2 19 11.0 SSE 24 32 13 17 1007.2 - 0.0
15/03:00am 23.2 16.3 -2.4 18 11.4 SSE 24 30 13 16 1007.0 1003.8 0.0
15/02:30am 23.7 17.3 -2.0 18 11.5 SSE 22 33 12 18 1007.4 - 0.0
15/02:00am 24.9 17.0 -1.8 17 12.1 SSE 30 39 16 21 1007.4 - 0.0
15/01:38am 25.4 17.4 -2.2 16 12.5 SE 30 50 16 27 1007.4 - 0.0
15/01:30am 25.5 17.5 -2.1 16 12.5 SE 30 41 16 22 1007.5 - 0.0
15/01:00am 26.2 17.9 -1.6 16 12.8 SE 32 41 17 22 1007.7 - 0.0
15/12:30am 28.9 22.9 -1.2 14 14.3 ESE 20 28 11 15 1007.7 - 0.0
15/12:00am 29.5 24.0 -1.8 13 14.8 ESE 17 24 9 13 1007.9 1004.6 0.0
 
Date/Time
CST
Temp
°C
App
Temp
°C
Dew
Point
°C
Rel
Hum
%
Delta-T
°C
Wind Press
QNH
hPa
Press
MSL
hPa
Rain since
9am
mm
Dir  Spd
km/h
Gust
km/h
Spd
kts
Gust
kts
14/11:30pm 29.1 24.5 -1.1 14 14.4 ESE 13 17 7 9 1008.2 - 0.0
14/11:00pm 29.4 24.7 -1.9 13 14.7 ESE 13 19 7 10 1008.3 - 0.0
14/10:30pm 30.0 25.0 -1.4 13 15.0 ESE 15 20 8 11 1008.4 - 0.0
14/10:00pm 30.1 24.2 -2.4 12 15.2 ESE 19 26 10 14 1008.1 - 0.0
14/09:30pm 30.7 24.7 -1.9 12 15.5 ESE 20 30 11 16 1008.1 - 0.0
14/09:00pm 31.0 24.8 -2.9 11 15.9 SE 20 26 11 14 1007.8 1004.5 0.0
14/08:30pm 31.1 25.4 -4.1 10 16.1 SE 17 22 9 12 1007.5 - 0.0
14/08:00pm 31.5 26.2 -3.8 10 16.3 SE 15 17 8 9 1007.3 - 0.0
14/07:30pm 33.0 26.9 -4.0 9 17.2 SSE 19 24 10 13 1006.9 - 0.0
14/07:00pm 34.2 28.0 -3.2 9 17.8 SSE 20 28 11 15 1006.5 - 0.0
14/06:30pm 34.8 28.7 -2.7 9 18.1 S 20 28 11 15 1006.3 - 0.0
14/06:00pm 35.4 30.3 -2.3 9 18.4 SSE 15 32 8 17 1006.2 1002.9 0.0
14/05:30pm 35.7 30.2 -2.0 9 18.5 S 17 24 9 13 1006.2 - 0.0
14/05:00pm 35.5 29.6 -2.2 9 18.4 S 19 33 10 18 1006.2 - 0.0
14/04:30pm 35.9 30.0 -0.5 10 18.3 S 20 32 11 17 1006.2 - 0.0
14/04:00pm 35.6 29.3 -0.7 10 18.2 SSE 22 30 12 16 1006.5 - 0.0
14/03:30pm 35.4 29.7 -0.8 10 18.1 SE 19 28 10 15 1006.8 - 0.0
14/03:00pm 35.8 30.3 0.8 11 18.0 SSE 19 28 10 15 1007.0 1003.8 0.0
14/02:30pm 35.1 29.9 0.2 11 17.7 S 17 26 9 14 1007.6 - 0.0
14/02:00pm 35.4 30.1 1.7 12 17.5 S 19 37 10 20 1007.9 - 0.0
14/01:30pm 35.2 29.6 1.5 12 17.4 SW 20 33 11 18 1008.5 - 0.0
14/01:00pm 34.2 28.7 1.9 13 16.7 SSW 20 26 11 14 1008.9 - 0.0
14/12:30pm 33.1 28.8 1.0 13 16.2 SSE 13 22 7 12 1009.2 - 0.0
14/12:00pm 32.7 28.0 0.7 13 16.1 SSE 15 28 8 15 1009.7 1006.4 0.0
14/11:30am 32.4 26.9 0.5 13 15.9 SSE 19 32 10 17 1010.3 - 0.0
14/11:00am 31.8 26.2 0.0 13 15.7 E 19 24 10 13 1010.7 - 0.0
14/10:30am 30.1 23.9 -0.3 14 14.8 SE 22 33 12 18 1011.1 - 0.0
14/10:00am 28.9 22.1 0.6 16 13.8 SE 26 35 14 19 1011.6 - 0.0
14/09:30am 27.8 20.6 0.5 17 13.2 SE 28 37 15 20 1011.7 - 0.0
14/09:00am 27.0 19.8 0.7 18 12.7 ESE 28 41 15 22 1011.9 1008.6 0.0
14/08:30am 26.0 18.1 1.3 20 12.0 SE 32 43 17 23 1011.5 - 0.0
14/08:00am 25.3 17.5 1.4 21 11.6 SE 32 44 17 24 1011.7 - 0.0
14/07:30am 24.3 16.4 1.2 22 11.1 SE 32 44 17 24 1011.5 - 0.0
14/07:00am 23.2 15.1 0.9 23 10.5 SE 33 44 18 24 1011.4 - 0.0
14/06:36am 22.9 14.9 0.7 23 10.4 SE 32 50 17 27 1011.1 - 0.0
14/06:30am 22.8 14.7 1.2 24 10.2 SE 33 48 18 26 1011.1 - 0.0
14/06:00am 23.0 14.5 0.8 23 10.5 SE 35 46 19 25 1010.6 1007.4 0.0
14/05:30am 23.3 14.7 0.4 22 10.7 SE 35 46 19 25 1010.4 - 0.0
14/05:00am 23.6 15.0 0.0 21 11.0 SE 35 46 19 25 1010.2 - 0.0
14/04:30am 24.0 15.7 -0.3 20 11.3 SE 33 44 18 24 1010.2 - 0.0
14/04:00am 24.3 15.6 -0.8 19 11.6 SE 35 50 19 27 1010.0 - 0.0
14/03:30am 24.7 16.4 -0.4 19 11.7 SE 33 44 18 24 1009.6 - 0.0
14/03:00am 25.2 16.8 -0.8 18 12.1 SE 33 46 18 25 1009.5 1006.2 0.0
14/02:30am 25.7 17.6 -0.4 18 12.3 SE 32 46 17 25 1009.5 - 0.0
14/02:01am 26.0 17.9 -0.1 18 12.4 SE 32 50 17 27 1009.2 - 0.0
14/02:00am 25.9 17.6 -0.2 18 12.3 SE 33 50 18 27 1009.2 - 0.0
14/01:44am 26.4 18.1 -0.6 17 12.7 SE 33 56 18 30 1009.1 - 0.0
14/01:30am 26.5 17.8 -0.5 17 12.7 SE 35 44 19 24 1009.2 - 0.0
14/01:00am 27.1 18.7 -0.9 16 13.2 SSE 33 44 18 24 1009.3 - 0.0
14/12:30am 27.8 19.3 -2.1 14 13.8 SE 33 44 18 24 1009.6 - 0.0
14/12:00am 28.5 20.0 -1.6 14 14.2 SE 33 43 18 23 1009.8 1006.5 0.0
 
Date/Time
CST
Temp
°C
App
Temp
°C
Dew
Point
°C
Rel
Hum
%
Delta-T
°C
Wind Press
QNH
hPa
Press
MSL
hPa
Rain since
9am
mm
Dir  Spd
km/h
Gust
km/h
Spd
kts
Gust
kts
13/11:30pm 29.3 20.9 -0.9 14 14.4 SE 33 44 18 24 1010.1 - 0.0
13/11:00pm 30.2 23.1 3.3 18 13.9 SSE 30 43 16 23 1010.1 - 0.0
13/10:30pm 31.0 25.5 6.1 21 13.5 SE 24 39 13 21 1009.8 - 0.0
13/10:00pm 31.1 26.6 6.2 21 13.6 SE 19 28 10 15 1009.5 - 0.0
13/09:30pm 31.6 26.9 5.9 20 14.0 SE 20 28 11 15 1009.0 - 0.0
13/09:00pm 32.5 27.0 5.9 19 14.6 SSE 24 35 13 19 1008.6 1005.4 0.0
13/08:30pm 33.2 26.5 5.7 18 15.0 SSE 30 39 16 21 1008.1 - 0.0

Other Formats:

Comma delimited format used in spreadsheet applications
http://www.bom.gov.au/fwo/IDD60801/IDD60801.94321.axf

JavaScript Object Notation format (JSON) in row-major order
http://www.bom.gov.au/fwo/IDD60801/IDD60801.94321.json